sensor_id;sensor_type;location;lat;lon;timestamp;pressure;altitude;pressure_sealevel;temperature;humidity
55014;BME280;40916;51.632;5.552;2022-12-07T00:00:08;1013.8336207980003;;;3.4354623470979746;0
55014;BME280;40916;51.632;5.552;2022-12-07T00:01:08;1013.8118825501504;;;3.4354623470979746;0
55014;BME280;40916;51.632;5.552;2022-12-07T00:02:07;1013.8344481747162;;;3.413470066744665;0
55014;BME280;40916;51.632;5.552;2022-12-07T00:03:08;1013.8347192954893;;;3.406138097670908;0
55014;BME280;40916;51.632;5.552;2022-12-07T00:04:09;1013.8531018293718;;;3.3988055237638086;0
55014;BME280;40916;51.632;5.552;2022-12-07T00:05:08;1013.79204704805;;;3.3841385605960426;0
55014;BME280;40916;51.632;5.552;2022-12-07T00:06:09;1013.8536318001537;;;3.3841385605960426;0
55014;BME280;40916;51.632;5.552;2022-12-07T00:07:08;1013.843284866404;;;3.369469175533286;0
55014;BME280;40916;51.632;5.552;2022-12-07T00:08:08;1013.7467463097177;;;3.332785105862005;0
55014;BME280;40916;51.632;5.552;2022-12-07T00:09:09;1013.8225650191142;;;3.340123132882429;0
55014;BME280;40916;51.632;5.552;2022-12-07T00:10:08;1013.8155685295342;;;3.332785105862005;0
55014;BME280;40916;51.632;5.552;2022-12-07T00:11:09;1013.8595229306674;;;3.3181072306924015;0
55014;BME280;40916;51.632;5.552;2022-12-07T00:12:08;1013.7262254994729;;;3.296085861899112;0
55014;BME280;40916;51.632;5.552;2022-12-07T00:13:09;1013.7590577961461;;;3.2887441898324035;0
55014;BME280;40916;51.632;5.552;2022-12-07T00:14:10;1013.769923408473;;;3.2887441898324035;0
55014;BME280;40916;51.632;5.552;2022-12-07T00:15:09;1013.7703858948903;;;3.2740590207064884;0
55014;BME280;40916;51.632;5.552;2022-12-07T00:16:10;1013.6510977265326;;;3.26671552321724;0
55014;BME280;40916;51.632;5.552;2022-12-07T00:17:09;1013.8063739561384;;;3.2814019095065206;0
55014;BME280;40916;51.632;5.552;2022-12-07T00:18:09;1013.709271174502;;;3.259371416823594;0
55014;BME280;40916;51.632;5.552;2022-12-07T00:19:09;1013.7235315837273;;;3.26671552321724;0
55014;BME280;40916;51.632;5.552;2022-12-07T00:20:09;1013.6802980976665;;;3.259371416823594;0
55014;BME280;40916;51.632;5.552;2022-12-07T00:21:12;1013.7565756959247;;;3.2520267013102746;0
55014;BME280;40916;51.632;5.552;2022-12-07T00:22:09;1013.6556142905059;;;3.2373354420630065;0
55014;BME280;40916;51.632;5.552;2022-12-07T00:23:09;1013.6375070027117;;;3.2373354420630065;0
55014;BME280;40916;51.632;5.552;2022-12-07T00:24:10;1013.7708389873252;;;3.259371416823594;0
55014;BME280;40916;51.632;5.552;2022-12-07T00:25:10;1013.6705329836868;;;3.2226417437511863;0
55014;BME280;40916;51.632;5.552;2022-12-07T00:26:10;1013.706746402424;;;3.2226417437511863;0
55014;BME280;40916;51.632;5.552;2022-12-07T00:27:10;1013.7105800025913;;;3.215293979406802;0
55014;BME280;40916;51.632;5.552;2022-12-07T00:28:10;1013.6600927603986;;;3.2079456046489483;0
55014;BME280;40916;51.632;5.552;2022-12-07T00:29:12;1013.6460227168332;;;3.193247023028789;0
55014;BME280;40916;51.632;5.552;2022-12-07T00:30:10;1013.6818201059864;;;3.2079456046489483;0
55014;BME280;40916;51.632;5.552;2022-12-07T00:31:11;1013.5377985175244;;;3.178545997161578;0
55014;BME280;40916;51.632;5.552;2022-12-07T00:32:10;1013.5921133186299;;;3.178545997161578;0
55014;BME280;40916;51.632;5.552;2022-12-07T00:33:11;1013.621081223177;;;3.178545997161578;0
55014;BME280;40916;51.632;5.552;2022-12-07T00:34:11;1013.5705878038558;;;3.1711945670945276;0
55014;BME280;40916;51.632;5.552;2022-12-07T00:35:11;1013.5168636049494;;;3.1491366057613135;0
55014;BME280;40916;51.632;5.552;2022-12-07T00:36:12;1013.5313466098398;;;3.1491366057613135;0
55014;BME280;40916;51.632;5.552;2022-12-07T00:37:11;1013.61100316976;;;3.1491366057613135;0
55014;BME280;40916;51.632;5.552;2022-12-07T00:38:11;1013.5530711206394;;;3.1491366057613135;0
55014;BME280;40916;51.632;5.552;2022-12-07T00:39:11;1013.5317274880473;;;3.1344282367618312;0
55014;BME280;40916;51.632;5.552;2022-12-07T00:40:11;1013.5279175361336;;;3.141782727550545;0
55014;BME280;40916;51.632;5.552;2022-12-07T00:41:12;1013.535158921923;;;3.141782727550545;0
55014;BME280;40916;51.632;5.552;2022-12-07T00:42:12;1013.6437797641855;;;3.141782727550545;0
55014;BME280;40916;51.632;5.552;2022-12-07T00:43:12;1013.5864066942437;;;3.1197174165824286;0
55014;BME280;40916;51.632;5.552;2022-12-07T00:44:12;1013.561424114526;;;3.105004143485793;0
55014;BME280;40916;51.632;5.552;2022-12-07T00:45:12;1013.5798771311632;;;3.0902884157329744;0
55014;BME280;40916;51.632;5.552;2022-12-07T00:46:12;1013.6017704462155;;;3.082929630816622;0
55014;BME280;40916;51.632;5.552;2022-12-07T00:47:12;1013.6019396876087;;;3.07557023158337;0
55014;BME280;40916;51.632;5.552;2022-12-07T00:48:12;1013.6053906727265;;;3.082929630816622;0
55014;BME280;40916;51.632;5.552;2022-12-07T00:49:12;1013.652282841371;;;3.0902884157329744;0
55014;BME280;40916;51.632;5.552;2022-12-07T00:50:12;1013.6307322615354;;;3.082929630816622;0
55014;BME280;40916;51.632;5.552;2022-12-07T00:51:13;1013.6052191244838;;;3.0902884157329744;0
55014;BME280;40916;51.632;5.552;2022-12-07T00:52:12;1013.6236606968065;;;3.07557023158337;0
55014;BME280;40916;51.632;5.552;2022-12-07T00:53:13;1013.5547075120766;;;3.082929630816622;0
55014;BME280;40916;51.632;5.552;2022-12-07T00:54:13;1013.6157301418503;;;3.105004143485793;0
55014;BME280;40916;51.632;5.552;2022-12-07T00:55:13;1013.5322810983341;;;3.11236108675741;0
55014;BME280;40916;51.632;5.552;2022-12-07T00:56:13;1013.5284784062584;;;3.1197174165824286;0
55014;BME280;40916;51.632;5.552;2022-12-07T00:57:13;1013.5856578946326;;;3.1491366057613135;0
55014;BME280;40916;51.632;5.552;2022-12-07T00:58:13;1013.6249017424406;;;3.1711945670945276;0
55014;BME280;40916;51.632;5.552;2022-12-07T00:59:13;1013.577629369128;;;3.178545997161578;0
55014;BME280;40916;51.632;5.552;2022-12-07T01:00:13;1013.5414195034565;;;3.178545997161578;0
55014;BME280;40916;51.632;5.552;2022-12-07T01:01:13;1013.5703873950698;;;3.178545997161578;0
55014;BME280;40916;51.632;5.552;2022-12-07T01:02:13;1013.577629369128;;;3.178545997161578;0
55014;BME280;40916;51.632;5.552;2022-12-07T01:03:14;1013.4907257109168;;;3.178545997161578;0
55014;BME280;40916;51.632;5.552;2022-12-07T01:04:14;1013.5667664082139;;;3.178545997161578;0
55014;BME280;40916;51.632;5.552;2022-12-07T01:05:14;1013.4802641455743;;;3.1638425253165536;0
55014;BME280;40916;51.632;5.552;2022-12-07T01:06:14;1013.5520794036801;;;3.1858968157342;0
55014;BME280;40916;51.632;5.552;2022-12-07T01:07:14;1013.4806561008056;;;3.1491366057613135;0
55014;BME280;40916;51.632;5.552;2022-12-07T01:08:14;1013.5200936889106;;;3.1638425253165536;0
55014;BME280;40916;51.632;5.552;2022-12-07T01:09:14;1013.4444486082084;;;3.1491366057613135;0
55014;BME280;40916;51.632;5.552;2022-12-07T01:10:14;1013.4806561008056;;;3.1491366057613135;0
55014;BME280;40916;51.632;5.552;2022-12-07T01:11:16;1013.5023806019063;;;3.1491366057613135;0
55014;BME280;40916;51.632;5.552;2022-12-07T01:12:14;1013.477227848539;;;3.141782727550545;0
55014;BME280;40916;51.632;5.552;2022-12-07T01:13:15;1013.4806561008056;;;3.1491366057613135;0
55014;BME280;40916;51.632;5.552;2022-12-07T01:14:15;1013.4621598123131;;;3.1638425253165536;0
55014;BME280;40916;51.632;5.552;2022-12-07T01:15:15;1013.4372071110745;;;3.1491366057613135;0
55014;BME280;40916;51.632;5.552;2022-12-07T01:16:15;1013.5311526313172;;;3.156489871611047;0
55014;BME280;40916;51.632;5.552;2022-12-07T01:17:15;1013.4806561008056;;;3.1491366057613135;0
55014;BME280;40916;51.632;5.552;2022-12-07T01:18:15;1013.4919005173876;;;3.1344282367618312;0
55014;BME280;40916;51.632;5.552;2022-12-07T01:19:15;1013.5139963388801;;;3.1197174165824286;0
55014;BME280;40916;51.632;5.552;2022-12-07T01:20:15;1013.5109163128475;;;3.0976465865501552;0
55014;BME280;40916;51.632;5.552;2022-12-07T01:21:16;1013.4828094631366;;;3.060849589294733;0
55014;BME280;40916;51.632;5.552;2022-12-07T01:22:15;1013.5229544783982;;;3.046126487123175;0
55014;BME280;40916;51.632;5.552;2022-12-07T01:23:16;1013.592045976449;;;3.031400923323151;0
55014;BME280;40916;51.632;5.552;2022-12-07T01:24:16;1013.5383494056088;;;3.0019424038472735;0
55014;BME280;40916;51.632;5.552;2022-12-07T01:25:16;1013.6508388831039;;;2.9872094446720645;0
55014;BME280;40916;51.632;5.552;2022-12-07T01:26:17;1013.6729605012307;;;2.9651053766852904;0
55014;BME280;40916;51.632;5.552;2022-12-07T01:27:16;1013.5536561027643;;;2.957736118686295;0
55014;BME280;40916;51.632;5.552;2022-12-07T01:28:16;1013.6107410191978;;;3.0019424038472735;0
55014;BME280;40916;51.632;5.552;2022-12-07T01:29:16;1013.4697227630897;;;2.994576232728516;0
55014;BME280;40916;51.632;5.552;2022-12-07T01:30:16;1013.6176871794345;;;3.016672896147469;0
55014;BME280;40916;51.632;5.552;2022-12-07T01:31:17;1013.6210045066346;;;3.031400923323151;0
55014;BME280;40916;51.632;5.552;2022-12-07T01:32:16;1013.606828081901;;;3.016672896147469;0
55014;BME280;40916;51.632;5.552;2022-12-07T01:33:17;1013.5852581056106;;;3.0093079582473017;0
55014;BME280;40916;51.632;5.552;2022-12-07T01:34:17;1013.6105955861367;;;3.0093079582473017;0
55014;BME280;40916;51.632;5.552;2022-12-07T01:35:17;1013.5887295883198;;;3.016672896147469;0
55014;BME280;40916;51.632;5.552;2022-12-07T01:36:17;1013.5561523071435;;;3.016672896147469;0
55014;BME280;40916;51.632;5.552;2022-12-07T01:37:17;1013.5128653352635;;;3.0093079582473017;0
55014;BME280;40916;51.632;5.552;2022-12-07T01:38:17;1013.6466447779345;;;3.016672896147469;0
55014;BME280;40916;51.632;5.552;2022-12-07T01:39:17;1013.5561523071435;;;3.016672896147469;0
55014;BME280;40916;51.632;5.552;2022-12-07T01:40:17;1013.5018568592878;;;3.016672896147469;0
55014;BME280;40916;51.632;5.552;2022-12-07T01:41:18;1013.6030580890629;;;3.0240372177665336;0
55014;BME280;40916;51.632;5.552;2022-12-07T01:42:18;1013.556001250978;;;3.0240372177665336;0
55014;BME280;40916;51.632;5.552;2022-12-07T01:43:18;1013.526889310536;;;3.031400923323151;0
55014;BME280;40916;51.632;5.552;2022-12-07T01:44:19;1013.4400138141489;;;3.031400923323151;0
55014;BME280;40916;51.632;5.552;2022-12-07T01:45:34;1013.4691271395977;;;3.0240372177665336;0
55014;BME280;40916;51.632;5.552;2022-12-07T01:46:18;1013.5298700816918;;;3.060849589294733;0
55014;BME280;40916;51.632;5.552;2022-12-07T01:47:18;1013.5081497937811;;;3.060849589294733;0
55014;BME280;40916;51.632;5.552;2022-12-07T01:48:19;1013.5009096987341;;;3.060849589294733;0
55014;BME280;40916;51.632;5.552;2022-12-07T01:49:21;1013.5514250447206;;;3.068210217815384;0
55014;BME280;40916;51.632;5.552;2022-12-07T01:50:19;1013.500743549171;;;3.068210217815384;0
55014;BME280;40916;51.632;5.552;2022-12-07T01:51:18;1013.5074714671293;;;3.0902884157329744;0
55014;BME280;40916;51.632;5.552;2022-12-07T01:52:19;1013.5257457161489;;;3.082929630816622;0
55014;BME280;40916;51.632;5.552;2022-12-07T01:53:19;1013.5474670624021;;;3.082929630816622;0
55014;BME280;40916;51.632;5.552;2022-12-07T01:54:19;1013.5434993843043;;;3.0976465865501552;0
55014;BME280;40916;51.632;5.552;2022-12-07T01:55:19;1013.5545351434992;;;3.0902884157329744;0
55014;BME280;40916;51.632;5.552;2022-12-07T01:56:20;1013.5436742933747;;;3.0902884157329744;0
55014;BME280;40916;51.632;5.552;2022-12-07T01:57:19;1013.5331565192297;;;3.07557023158337;0
55014;BME280;40916;51.632;5.552;2022-12-07T01:58:19;1013.5726365626821;;;3.0902884157329744;0
55014;BME280;40916;51.632;5.552;2022-12-07T01:59:19;1013.5186758575121;;;3.07557023158337;0
55014;BME280;40916;51.632;5.552;2022-12-07T02:01:20;1013.5760824651113;;;3.0976465865501552;0
55014;BME280;40916;51.632;5.552;2022-12-07T02:02:20;1013.482303036109;;;3.082929630816622;0
55014;BME280;40916;51.632;5.552;2022-12-07T02:03:21;1013.5069378908652;;;3.11236108675741;0
55014;BME280;40916;51.632;5.552;2022-12-07T02:04:20;1013.5034977140092;;;3.105004143485793;0
55014;BME280;40916;51.632;5.552;2022-12-07T02:05:20;1013.5002309032656;;;3.0902884157329744;0
55014;BME280;40916;51.632;5.552;2022-12-07T02:06:21;1013.5434993843043;;;3.0976465865501552;0
55014;BME280;40916;51.632;5.552;2022-12-07T02:07:20;1013.4423064089772;;;3.0902884157329744;0
55014;BME280;40916;51.632;5.552;2022-12-07T02:08:20;1013.4498927395741;;;3.07557023158337;0
55014;BME280;40916;51.632;5.552;2022-12-07T02:09:20;1013.5114355273458;;;3.07557023158337;0
55014;BME280;40916;51.632;5.552;2022-12-07T02:10:21;1013.5552104228395;;;3.060849589294733;0
55014;BME280;40916;51.632;5.552;2022-12-07T02:11:21;1013.5194933001081;;;3.038764013035884;0
55014;BME280;40916;51.632;5.552;2022-12-07T02:12:21;1013.483606153545;;;3.0240372177665336;0
55014;BME280;40916;51.632;5.552;2022-12-07T02:13:21;1013.4513315167596;;;3.0093079582473017;0
55014;BME280;40916;51.632;5.552;2022-12-07T02:14:21;1013.5132992661077;;;2.9872094446720645;0
55014;BME280;40916;51.632;5.552;2022-12-07T02:15:22;1013.4882412786899;;;2.972474016869679;0
55014;BME280;40916;51.632;5.552;2022-12-07T02:16:25;1013.4453399544025;;;2.9429957483664317;0
55014;BME280;40916;51.632;5.552;2022-12-07T02:17:23;1013.3951684918711;;;2.9135075842869966;0
55014;BME280;40916;51.632;5.552;2022-12-07T02:18:22;1013.5142286504737;;;2.935624635606274;0
55014;BME280;40916;51.632;5.552;2022-12-07T02:19:32;1013.4459499296509;;;2.906133995434274;0
55014;BME280;40916;51.632;5.552;2022-12-07T02:20:23;1013.4281941584488;;;2.8840095105541934;0
55014;BME280;40916;51.632;5.552;2022-12-07T02:21:24;1013.4606520416154;;;2.8913849587882474;0
55014;BME280;40916;51.632;5.552;2022-12-07T02:22:29;1013.453737413486;;;2.869256753161359;0
55014;BME280;40916;51.632;5.552;2022-12-07T02:23:29;1013.4792694911308;;;2.8545015130641325;0
55014;BME280;40916;51.632;5.552;2022-12-07T02:24:25;1013.4289913677507;;;2.8249835776861403;0
55014;BME280;40916;51.632;5.552;2022-12-07T02:25:23;1013.4326983854014;;;2.8176025393881616;0
55014;BME280;40916;51.632;5.552;2022-12-07T02:26:27;1013.4328689177368;;;2.802838595898077;0
55014;BME280;40916;51.632;5.552;2022-12-07T02:27:27;1013.4475780435232;;;2.7806880101023737;0
55014;BME280;40916;51.632;5.552;2022-12-07T02:28:25;1013.4297728592685;;;2.7511451680065697;0
55014;BME280;40916;51.632;5.552;2022-12-07T02:29:23;1013.4946096485412;;;2.7806880101023737;0
55014;BME280;40916;51.632;5.552;2022-12-07T02:30:23;1013.4875188672792;;;2.7659178366094146;0
55014;BME280;40916;51.632;5.552;2022-12-07T02:31:23;1013.4621949791479;;;2.7659178366094146;0
55014;BME280;40916;51.632;5.552;2022-12-07T02:32:23;1013.5092250616015;;;2.7659178366094146;0
55014;BME280;40916;51.632;5.552;2022-12-07T02:33:24;1013.5236958601217;;;2.7659178366094146;0
55014;BME280;40916;51.632;5.552;2022-12-07T02:34:26;1013.4731838187323;;;2.7511451680065697;0
55014;BME280;40916;51.632;5.552;2022-12-07T02:35:24;1013.5055364271855;;;2.773303235133511;0
55014;BME280;40916;51.632;5.552;2022-12-07T02:36:25;1013.5236958601217;;;2.7659178366094146;0
55014;BME280;40916;51.632;5.552;2022-12-07T02:37:26;1013.4842785949137;;;2.721592338353698;0
55014;BME280;40916;51.632;5.552;2022-12-07T02:38:24;1013.4951306326435;;;2.721592338353698;0
55014;BME280;40916;51.632;5.552;2022-12-07T02:39:25;1013.4591147594313;;;2.6994211532072967;0
55014;BME280;40916;51.632;5.552;2022-12-07T02:40:25;1013.4664847233299;;;2.6772443360213174;0
55014;BME280;40916;51.632;5.552;2022-12-07T02:41:24;1013.4665987296431;;;2.655061880764606;0
55014;BME280;40916;51.632;5.552;2022-12-07T02:42:25;1013.4197015432453;;;2.625476492983058;0
55014;BME280;40916;51.632;5.552;2022-12-07T02:43:25;1013.4450175960494;;;2.625476492983058;0
55014;BME280;40916;51.632;5.552;2022-12-07T02:44:24;1013.4377844375294;;;2.625476492983058;0
55014;BME280;40916;51.632;5.552;2022-12-07T02:45:24;1013.3184089970325;;;2.632873781397393;0
55014;BME280;40916;51.632;5.552;2022-12-07T02:46:25;1013.4159633230395;;;2.655061880764606;0
55014;BME280;40916;51.632;5.552;2022-12-07T02:47:24;1013.3725962888465;;;2.6476664750640992;0
55014;BME280;40916;51.632;5.552;2022-12-07T02:48:24;1013.3798917954957;;;2.632873781397393;0
55014;BME280;40916;51.632;5.552;2022-12-07T02:49:25;1013.307613824203;;;2.6180785765491343;0
55014;BME280;40916;51.632;5.552;2022-12-07T02:50:25;1013.2931213638952;;;2.625476492983058;0
55014;BME280;40916;51.632;5.552;2022-12-07T02:51:25;1013.3943287799348;;;2.6402704420163694;0
55014;BME280;40916;51.632;5.552;2022-12-07T02:52:25;1013.3003258273501;;;2.632873781397393;0
55014;BME280;40916;51.632;5.552;2022-12-07T02:53:28;1013.3581919804717;;;2.632873781397393;0
55014;BME280;40916;51.632;5.552;2022-12-07T02:54:25;1013.3184373884759;;;2.625476492983058;0
55014;BME280;40916;51.632;5.552;2022-12-07T02:55:26;1013.2859605355139;;;2.603280858725064;0
55014;BME280;40916;51.632;5.552;2022-12-07T02:56:27;1013.2968455459368;;;2.588480626129222;0
55014;BME280;40916;51.632;5.552;2022-12-07T02:57:28;1013.3547303342942;;;2.573677876963938;0
55014;BME280;40916;51.632;5.552;2022-12-07T02:58:28;1013.3655966437861;;;2.5514690307116723;0
55014;BME280;40916;51.632;5.552;2022-12-07T02:59:28;1013.4379140748711;;;2.5588726094298195;0
55014;BME280;40916;51.632;5.552;2022-12-07T03:00:25;1013.3222060231074;;;2.5366599822467;0
55014;BME280;40916;51.632;5.552;2022-12-07T03:01:28;1013.4089824759675;;;2.529254512048958;0
55014;BME280;40916;51.632;5.552;2022-12-07T03:02:28;1013.3619623600263;;;2.5144416785948493;0
55014;BME280;40916;51.632;5.552;2022-12-07T03:03:26;1013.3149583614602;;;2.5144416785948493;0
55014;BME280;40916;51.632;5.552;2022-12-07T03:04:30;1013.4342931651752;;;2.529254512048958;0
55014;BME280;40916;51.632;5.552;2022-12-07T03:05:31;1013.3764401695628;;;2.529254512048958;0
55014;BME280;40916;51.632;5.552;2022-12-07T03:06:27;1013.3655927361671;;;2.529254512048958;0
55014;BME280;40916;51.632;5.552;2022-12-07T03:07:28;1013.3981392874051;;;2.5366599822467;0
55014;BME280;40916;51.632;5.552;2022-12-07T03:08:28;1013.4415247916994;;;2.529254512048958;0
55014;BME280;40916;51.632;5.552;2022-12-07T03:09:27;1013.4379164222432;;;2.5514690307116723;0
55014;BME280;40916;51.632;5.552;2022-12-07T03:10:28;1013.474063815464;;;2.573677876963938;0
55014;BME280;40916;51.632;5.552;2022-12-07T03:11:29;1013.4089728101868;;;2.573677876963938;0
55014;BME280;40916;51.632;5.552;2022-12-07T03:12:28;1013.3981014360174;;;2.588480626129222;0
55014;BME280;40916;51.632;5.552;2022-12-07T03:13:28;1013.5137758266477;;;2.610680031871283;0
55014;BME280;40916;51.632;5.552;2022-12-07T03:14:29;1013.4053017201861;;;2.603280858725064;0
55014;BME280;40916;51.632;5.552;2022-12-07T03:15:29;1013.4992893399194;;;2.6180785765491343;0
55014;BME280;40916;51.632;5.552;2022-12-07T03:16:27;1013.4848232519726;;;2.6180785765491343;0
55014;BME280;40916;51.632;5.552;2022-12-07T03:17:27;1013.4740133682633;;;2.603280858725064;0
55014;BME280;40916;51.632;5.552;2022-12-07T03:18:29;1013.5137554297094;;;2.6180785765491343;0
55014;BME280;40916;51.632;5.552;2022-12-07T03:19:27;1013.5499404702786;;;2.610680031871283;0
55014;BME280;40916;51.632;5.552;2022-12-07T03:20:27;1013.5354922465269;;;2.603280858725064;0
55014;BME280;40916;51.632;5.552;2022-12-07T03:21:29;1013.4776596987151;;;2.588480626129222;0
55014;BME280;40916;51.632;5.552;2022-12-07T03:22:28;1013.5029846387065;;;2.58107956623018;0
55014;BME280;40916;51.632;5.552;2022-12-07T03:23:28;1013.481296151687;;;2.573677876963938;0
55014;BME280;40916;51.632;5.552;2022-12-07T03:24:29;1013.4812759847077;;;2.588480626129222;0
55014;BME280;40916;51.632;5.552;2022-12-07T03:25:28;1013.4559829769216;;;2.573677876963938;0
55014;BME280;40916;51.632;5.552;2022-12-07T03:26:30;1013.4595991443998;;;2.573677876963938;0
55014;BME280;40916;51.632;5.552;2022-12-07T03:27:30;1013.3981014360174;;;2.588480626129222;0
55014;BME280;40916;51.632;5.552;2022-12-07T03:28:30;1013.4378805603981;;;2.588480626129222;0
55014;BME280;40916;51.632;5.552;2022-12-07T03:29:34;1013.4559313515799;;;2.603280858725064;0
55014;BME280;40916;51.632;5.552;2022-12-07T03:30:29;1013.4089502867391;;;2.588480626129222;0
55014;BME280;40916;51.632;5.552;2022-12-07T03:31:29;1013.4558673346934;;;2.625476492983058;0
55014;BME280;40916;51.632;5.552;2022-12-07T03:32:29;1013.4015916146668;;;2.632873781397393;0
55014;BME280;40916;51.632;5.552;2022-12-07T03:33:30;1013.3979135675767;;;2.6476664750640992;0
55014;BME280;40916;51.632;5.552;2022-12-07T03:34:31;1013.350928441985;;;2.6402704420163694;0
55014;BME280;40916;51.632;5.552;2022-12-07T03:35:30;1013.4122711423106;;;2.6698508110194688;0
55014;BME280;40916;51.632;5.552;2022-12-07T03:36:30;1013.4230373122213;;;2.6846372345709355;0
55014;BME280;40916;51.632;5.552;2022-12-07T03:37:32;1013.4048062353057;;;2.706812173740687;0
55014;BME280;40916;51.632;5.552;2022-12-07T03:38:30;1013.4117502439027;;;2.743757897483082;0
55014;BME280;40916;51.632;5.552;2022-12-07T03:39:30;1013.4041642715674;;;2.7806880101023737;0
55014;BME280;40916;51.632;5.552;2022-12-07T03:40:30;1013.3316485439519;;;2.795455690262706;0
55014;BME280;40916;51.632;5.552;2022-12-07T03:41:30;1013.3996646378953;;;2.8545015130641325;0
55014;BME280;40916;51.632;5.552;2022-12-07T03:42:30;1013.3056867040325;;;2.847122961449198;0
55014;BME280;40916;51.632;5.552;2022-12-07T03:43:30;1013.3700709538626;;;2.8987597870081316;0
55014;BME280;40916;51.632;5.552;2022-12-07T03:44:30;1013.3447396885992;;;2.8987597870081316;0
55014;BME280;40916;51.632;5.552;2022-12-07T03:45:31;1013.3224191253316;;;2.935624635606274;0
55014;BME280;40916;51.632;5.552;2022-12-07T03:46:32;1013.3005757588425;;;2.9429957483664317;0
55014;BME280;40916;51.632;5.552;2022-12-07T03:47:31;1013.2676006891227;;;2.9651053766852904;0
55014;BME280;40916;51.632;5.552;2022-12-07T03:48:32;1013.2350271956117;;;2.9651053766852904;0
55014;BME280;40916;51.632;5.552;2022-12-07T03:49:31;1013.2563177966099;;;2.9872094446720645;0
55014;BME280;40916;51.632;5.552;2022-12-07T03:50:31;1013.1986941853249;;;2.972474016869679;0
55014;BME280;40916;51.632;5.552;2022-12-07T03:51:31;1013.1584445830426;;;2.994576232728516;0
55014;BME280;40916;51.632;5.552;2022-12-07T03:52:32;1013.2232947154465;;;3.0093079582473017;0
55014;BME280;40916;51.632;5.552;2022-12-07T03:53:33;1013.2594910025362;;;3.0093079582473017;0
55014;BME280;40916;51.632;5.552;2022-12-07T03:54:31;1013.2665768852775;;;3.016672896147469;0
55014;BME280;40916;51.632;5.552;2022-12-07T03:55:31;1013.2269143436362;;;3.0093079582473017;0
55014;BME280;40916;51.632;5.552;2022-12-07T03:56:31;1013.2303800094728;;;3.016672896147469;0
55014;BME280;40916;51.632;5.552;2022-12-07T03:57:31;1013.3853971887078;;;3.046126487123175;0
55014;BME280;40916;51.632;5.552;2022-12-07T03:58:31;1013.3238584551694;;;3.046126487123175;0
55014;BME280;40916;51.632;5.552;2022-12-07T03:59:31;1013.2695596003344;;;3.046126487123175;0
55014;BME280;40916;51.632;5.552;2022-12-07T04:00:31;1013.2659396776021;;;3.046126487123175;0
55014;BME280;40916;51.632;5.552;2022-12-07T04:01:31;1013.3449080609533;;;3.07557023158337;0
55014;BME280;40916;51.632;5.552;2022-12-07T04:02:31;1013.3228372328359;;;3.0902884157329744;0
55014;BME280;40916;51.632;5.552;2022-12-07T04:03:31;1013.2250898185854;;;3.0902884157329744;0
55014;BME280;40916;51.632;5.552;2022-12-07T04:04:32;1013.2573108415143;;;3.105004143485793;0
55014;BME280;40916;51.632;5.552;2022-12-07T04:05:32;1013.2430114131569;;;3.0976465865501552;0
55014;BME280;40916;51.632;5.552;2022-12-07T04:06:32;1013.2142289999741;;;3.0902884157329744;0
55014;BME280;40916;51.632;5.552;2022-12-07T04:07:32;1013.2645516242625;;;3.105004143485793;0
55014;BME280;40916;51.632;5.552;2022-12-07T04:08:32;1013.232150417043;;;3.0976465865501552;0
55014;BME280;40916;51.632;5.552;2022-12-07T04:09:32;1013.1668010961209;;;3.105004143485793;0
55014;BME280;40916;51.632;5.552;2022-12-07T04:10:32;1013.2891452469887;;;3.1344282367618312;0
55014;BME280;40916;51.632;5.552;2022-12-07T04:11:32;1013.3289721465273;;;3.1344282367618312;0
55014;BME280;40916;51.632;5.552;2022-12-07T04:12:32;1013.224355379221;;;3.1197174165824286;0
55014;BME280;40916;51.632;5.552;2022-12-07T04:13:33;1013.3142968631154;;;3.141782727550545;0
55014;BME280;40916;51.632;5.552;2022-12-07T04:14:33;1013.3213432197444;;;3.1491366057613135;0
55014;BME280;40916;51.632;5.552;2022-12-07T04:15:33;1013.281515034407;;;3.1491366057613135;0
55014;BME280;40916;51.632;5.552;2022-12-07T04:16:33;1013.2744693244624;;;3.141782727550545;0